»·PEaware :: N751LU KFAT-KPRC

N751LU :: KFAT-KPRC

FLIGHT INFORMATION

Flight Status: Arrived
Operator: Privately registered:
United States
More flights under this callsign
Pilot: Ewen S. (18928)
Aircraft: CANADAIR CL-600 CHALLENGER
(CL60)
More flights by this aircraft type
Origin: KFAT Fresno Yosemite Intl
United States
Destination: KPRC Love
United States
More flights between these airports :: More routes between these airports
Route: YOSE3 BIH LIDAT J92 DRK
File this flight plan on PilotEdge
Remarks:
Altitude:
(Current/Filed)
35,000ft
Speed:
(Current/Filed)
430kts
Departed: 20-Jun-23 12:37 PM
Arrived: 20-Jun-23 01:43 PM
Distance/Time
Traveled:
377nm/1:06
Distance/Time
To Go:
Arrived

Flight Plot

Page will automatically refresh every two minutes.

Flight plan parsing failed; only flown route is shown


Map Options




Map Legend


Flown Route
Filed Route
Departure Airport
Arrival Airport
Navaid (VOR, NDB)
Fix

Horizontal Profiles

Position Reports

Time Latitude Longitude Heading Altitude Ground
Speed
20-Jun-23 12:13 36.778958 -119.731088 124 336ft 0kts
20-Jun-23 12:14 36.778958 -119.731088 124 336ft 0kts
20-Jun-23 12:15 36.778958 -119.731088 124 336ft 0kts
20-Jun-23 12:16 36.778958 -119.731088 124 336ft 0kts
20-Jun-23 12:17 36.778958 -119.731088 124 336ft 0kts
20-Jun-23 12:18 36.778958 -119.731088 124 336ft 0kts
20-Jun-23 12:19 36.778958 -119.731088 124 336ft 0kts
20-Jun-23 12:20 36.778958 -119.731088 124 336ft 0kts
20-Jun-23 12:21 36.778958 -119.731088 124 336ft 0kts
20-Jun-23 12:22 36.778958 -119.731088 124 336ft 0kts
20-Jun-23 12:23 36.778958 -119.731088 124 336ft 0kts
20-Jun-23 12:24 36.778958 -119.731088 124 336ft 0kts
20-Jun-23 12:25 36.778958 -119.731088 124 336ft 0kts
20-Jun-23 12:26 36.778958 -119.731088 124 336ft 0kts
20-Jun-23 12:27 36.778958 -119.731088 124 336ft 0kts
20-Jun-23 12:28 36.778958 -119.731088 124 336ft 0kts
20-Jun-23 12:29 36.778958 -119.731088 124 336ft 0kts
20-Jun-23 12:30 36.778885 -119.730907 108 336ft 6kts
20-Jun-23 12:31 36.778774 -119.729534 49 336ft 6kts
20-Jun-23 12:32 36.778344 -119.726650 124 338ft 14kts
20-Jun-23 12:33 36.775800 -119.722261 123 337ft 15kts
20-Jun-23 12:34 36.772493 -119.716318 123 335ft 25kts
20-Jun-23 12:35 36.769804 -119.711177 41 334ft 5kts
20-Jun-23 12:36 36.775159 -119.718522 305 336ft 129kts
20-Jun-23 12:37 36.803362 -119.769296 304 3089ft 216kts
20-Jun-23 12:38 36.848275 -119.832479 345 6676ft 269kts
20-Jun-23 12:39 36.917719 -119.793808 32 10785ft 294kts
20-Jun-23 12:40 36.988466 -119.732646 32 14308ft 325kts
20-Jun-23 12:41 37.053189 -119.650234 70 17546ft 355kts
20-Jun-23 12:42 37.084861 -119.527632 72 20193ft 380kts
20-Jun-23 12:43 37.118277 -119.397665 73 22574ft 403kts
20-Jun-23 12:44 37.153468 -119.260032 74 24680ft 423kts
20-Jun-23 12:45 37.189797 -119.117046 74 26694ft 440kts
20-Jun-23 12:46 37.227269 -118.968816 75 28494ft 454kts
20-Jun-23 12:47 37.265860 -118.815217 75 30040ft 467kts
20-Jun-23 12:48 37.305014 -118.658418 75 31640ft 473kts
20-Jun-23 12:49 37.344694 -118.498473 75 32864ft 483kts
20-Jun-23 12:50 37.378675 -118.334894 92 34000ft 479kts
20-Jun-23 12:51 37.387579 -118.167396 92 35141ft 478kts
20-Jun-23 12:52 37.396243 -117.998305 91 35494ft 495kts
20-Jun-23 12:53 37.405012 -117.821698 91 35511ft 516kts
20-Jun-23 12:54 37.413807 -117.639644 91 35491ft 524kts
20-Jun-23 12:55 37.419584 -117.457771 100 35541ft 514kts
20-Jun-23 12:56 37.380861 -117.291051 127 35528ft 483kts
20-Jun-23 12:57 37.297829 -117.167060 151 35555ft 453kts
20-Jun-23 12:58 37.194581 -117.078252 155 35513ft 450kts
20-Jun-23 12:59 37.090453 -116.990418 155 35498ft 449kts
20-Jun-23 13:00 36.985980 -116.902621 155 35545ft 451kts
20-Jun-23 13:01 36.881569 -116.815152 155 35486ft 452kts
20-Jun-23 13:02 36.786842 -116.707126 133 35456ft 477kts
20-Jun-23 13:03 36.722221 -116.559175 125 35484ft 486kts
20-Jun-23 13:04 36.659741 -116.409645 125 35467ft 486kts
20-Jun-23 13:05 36.596887 -116.259985 126 35431ft 485kts
20-Jun-23 13:06 36.534323 -116.111719 126 35467ft 483kts
20-Jun-23 13:07 36.471751 -115.964181 126 35456ft 484kts
20-Jun-23 13:08 36.408652 -115.816054 126 35446ft 483kts
20-Jun-23 13:09 36.345691 -115.668939 126 35429ft 484kts
20-Jun-23 13:10 36.282323 -115.521528 126 35466ft 484kts
20-Jun-23 13:11 36.218843 -115.374507 126 35463ft 483kts
20-Jun-23 13:12 36.155147 -115.227635 126 35502ft 482kts
20-Jun-23 13:13 36.091565 -115.081700 126 35517ft 482kts
20-Jun-23 13:14 36.027776 -114.935915 126 35519ft 481kts
20-Jun-23 13:15 35.959912 -114.794008 130 35501ft 476kts
20-Jun-23 13:16 35.887756 -114.657214 130 35532ft 475kts
20-Jun-23 13:17 35.815646 -114.520888 130 35512ft 473kts
20-Jun-23 13:18 35.743472 -114.384945 130 35519ft 474kts
20-Jun-23 13:19 35.671062 -114.249006 130 35564ft 473kts
20-Jun-23 13:20 35.598871 -114.113976 130 35567ft 472kts
20-Jun-23 13:21 35.526714 -113.979443 130 34675ft 459kts
20-Jun-23 13:22 35.458167 -113.852137 130 32831ft 440kts
20-Jun-23 13:23 35.391716 -113.729242 130 30878ft 424kts
20-Jun-23 13:24 35.327448 -113.610822 130 28920ft 411kts
20-Jun-23 13:25 35.264983 -113.496107 129 26976ft 399kts
20-Jun-23 13:26 35.203696 -113.383932 129 25096ft 389kts
20-Jun-23 13:27 35.145630 -113.277954 130 25030ft 375kts
20-Jun-23 13:28 35.103663 -113.201723 130 24940ft 374kts
20-Jun-23 13:29 35.045156 -113.095526 130 24840ft 381kts
20-Jun-23 13:30 34.987082 -112.990308 129 22626ft 364kts
20-Jun-23 13:31 34.931080 -112.889289 128 20099ft 352kts
20-Jun-23 13:32 34.877033 -112.792028 128 17510ft 343kts
20-Jun-23 13:33 34.824063 -112.696971 129 14834ft 335kts
20-Jun-23 13:34 34.772484 -112.604639 128 12162ft 325kts
20-Jun-23 13:35 34.742523 -112.508489 92 10888ft 311kts
20-Jun-23 13:36 34.751610 -112.408957 55 9144ft 293kts
20-Jun-23 13:37 34.798528 -112.334154 87 7308ft 252kts
20-Jun-23 13:38 34.758534 -112.298602 217 6610ft 190kts
20-Jun-23 13:40 34.723603 -112.345638 219 6611ft 188kts
20-Jun-23 13:41 34.690388 -112.381524 219 5631ft 142kts
20-Jun-23 13:42 34.659534 -112.414105 219 4981ft 145kts
20-Jun-23 13:43 34.646405 -112.427726 157 5045ft 10kts
20-Jun-23 13:44 34.647213 -112.425226 101 5032ft 10kts
20-Jun-23 13:45 34.646726 -112.424253 28 5030ft 0kts

Navigation Log

Ident Type
Flight plan parsing failed, navigation log unavailable